createdAt,value
2019-01-15T00:00:05.429Z,1.19
2019-01-15T00:01:05.473Z,1.19
2019-01-15T00:02:05.593Z,1.19
2019-01-15T00:03:05.810Z,1.19
2019-01-15T00:04:05.865Z,1.25
2019-01-15T00:05:05.521Z,1.25
2019-01-15T00:06:05.468Z,1.25
2019-01-15T00:07:05.129Z,1.19
2019-01-15T00:08:05.648Z,1.19
2019-01-15T00:09:05.681Z,1.19
2019-01-15T00:10:05.775Z,1.19
2019-01-15T00:11:05.070Z,1.19
2019-01-15T00:12:07.875Z,1.19
2019-01-15T00:13:05.444Z,1.19
2019-01-15T00:14:05.926Z,1.19
2019-01-15T00:15:05.276Z,1.19
2019-01-15T00:16:05.701Z,1.19
2019-01-15T00:17:05.223Z,1.19
2019-01-15T00:18:05.467Z,1.19
2019-01-15T00:19:05.120Z,1.25
2019-01-15T00:20:05.235Z,1.25
2019-01-15T00:21:05.765Z,1.25
2019-01-15T00:22:05.232Z,1.25
2019-01-15T00:23:05.613Z,1.25
2019-01-15T00:24:06.033Z,1.25
2019-01-15T00:25:05.526Z,1.25
2019-01-15T00:26:05.854Z,1.25
2019-01-15T00:27:05.225Z,1.25
2019-01-15T00:28:05.228Z,1.25
2019-01-15T00:29:05.537Z,1.25
2019-01-15T00:30:05.837Z,1.25
2019-01-15T00:31:05.280Z,1.25
2019-01-15T00:32:05.308Z,1.25
2019-01-15T00:33:05.629Z,1.25
2019-01-15T00:34:05.857Z,1.25
2019-01-15T00:35:05.122Z,1.25
2019-01-15T00:36:05.790Z,1.25
2019-01-15T00:37:05.864Z,1.25
2019-01-15T00:38:05.913Z,1.25
2019-01-15T00:39:05.376Z,1.25
2019-01-15T00:40:05.785Z,1.25
2019-01-15T00:41:06.434Z,1.25
2019-01-15T00:42:05.676Z,1.25
2019-01-15T00:43:05.949Z,1.25
2019-01-15T00:44:05.323Z,1.25
2019-01-15T00:45:05.384Z,1.25
2019-01-15T00:46:05.818Z,1.25
2019-01-15T00:47:05.691Z,1.31
2019-01-15T00:48:05.476Z,1.25
2019-01-15T00:49:05.393Z,1.25
2019-01-15T00:50:05.632Z,1.25
2019-01-15T00:51:05.770Z,1.25
2019-01-15T00:52:05.802Z,1.31
2019-01-15T00:53:05.769Z,1.31
2019-01-15T00:54:05.787Z,1.31
2019-01-15T00:55:05.211Z,1.31
2019-01-15T00:56:05.624Z,1.25
2019-01-15T00:57:05.196Z,1.31
2019-01-15T00:58:05.704Z,1.31
2019-01-15T00:59:05.296Z,1.31
2019-01-15T01:00:05.408Z,1.31
2019-01-15T01:01:05.269Z,1.31
2019-01-15T01:02:05.886Z,1.31
2019-01-15T01:03:05.853Z,1.31
2019-01-15T01:04:06.115Z,1.31
2019-01-15T01:05:06.091Z,1.31
2019-01-15T01:06:06.444Z,1.31
2019-01-15T01:07:05.779Z,1.31
2019-01-15T01:08:05.868Z,1.31
2019-01-15T01:09:06.045Z,1.31
2019-01-15T01:10:05.977Z,1.31
2019-01-15T01:11:05.539Z,1.31
2019-01-15T01:12:05.709Z,1.31
2019-01-15T01:13:06.018Z,1.31
2019-01-15T01:14:05.643Z,1.38
2019-01-15T01:15:05.483Z,1.31
2019-01-15T01:16:05.551Z,1.38
2019-01-15T01:17:05.755Z,1.38
2019-01-15T01:18:06.010Z,1.31
2019-01-15T01:19:06.155Z,1.38
2019-01-15T01:20:05.949Z,1.38
2019-01-15T01:21:05.930Z,1.38
2019-01-15T01:22:06.044Z,1.38
2019-01-15T01:23:05.471Z,1.38
2019-01-15T01:24:05.384Z,1.38
2019-01-15T01:25:05.708Z,1.38
2019-01-15T01:26:05.623Z,1.38
2019-01-15T01:27:05.945Z,1.38
2019-01-15T01:28:05.376Z,1.38
2019-01-15T01:29:05.637Z,1.38
2019-01-15T01:30:05.709Z,1.38
2019-01-15T01:31:05.136Z,1.38
2019-01-15T01:32:05.161Z,1.38
2019-01-15T01:33:06.017Z,1.38
2019-01-15T01:34:05.542Z,1.38
2019-01-15T01:35:05.615Z,1.38
2019-01-15T01:36:06.522Z,1.38
2019-01-15T01:37:05.604Z,1.38
2019-01-15T01:38:05.383Z,1.38
2019-01-15T01:39:05.541Z,1.38
2019-01-15T01:40:05.695Z,1.38
2019-01-15T01:41:05.611Z,1.38
2019-01-15T01:42:05.725Z,1.38
2019-01-15T01:43:05.788Z,1.38
2019-01-15T01:44:05.878Z,1.38
2019-01-15T01:45:05.930Z,1.38
2019-01-15T01:46:06.025Z,1.38
2019-01-15T01:47:05.520Z,1.44
2019-01-15T01:48:05.553Z,1.44
2019-01-15T01:49:05.851Z,1.38
2019-01-15T01:50:05.865Z,1.38
2019-01-15T01:51:05.449Z,1.38
2019-01-15T01:52:05.631Z,1.44
2019-01-15T01:53:05.629Z,1.44
2019-01-15T01:54:05.148Z,1.44
2019-01-15T01:55:05.838Z,1.44
2019-01-15T01:56:05.855Z,1.44
2019-01-15T01:57:06.080Z,1.44
2019-01-15T01:58:05.548Z,1.44
2019-01-15T01:59:05.519Z,1.44
2019-01-15T02:00:05.709Z,1.44
2019-01-15T02:01:05.776Z,1.50
2019-01-15T02:02:05.482Z,1.44
2019-01-15T02:03:05.523Z,1.44
2019-01-15T02:04:06.038Z,1.50
2019-01-15T02:05:05.993Z,1.50
2019-01-15T02:06:05.125Z,1.50
2019-01-15T02:07:05.450Z,1.50
2019-01-15T02:08:05.242Z,1.50
2019-01-15T02:09:05.841Z,1.50
2019-01-15T02:10:05.563Z,1.50
2019-01-15T02:11:05.445Z,1.50
2019-01-15T02:12:05.960Z,1.50
2019-01-15T02:13:05.384Z,1.50
2019-01-15T02:14:05.465Z,1.50
2019-01-15T02:15:05.963Z,1.50
2019-01-15T02:16:05.230Z,1.50
2019-01-15T02:17:05.317Z,1.50
2019-01-15T02:18:05.621Z,1.50
2019-01-15T02:19:05.211Z,1.50
2019-01-15T02:20:05.884Z,1.50
2019-01-15T02:21:05.850Z,1.50
2019-01-15T02:22:05.849Z,1.50
2019-01-15T02:23:06.136Z,1.50
2019-01-15T02:24:05.478Z,1.50
2019-01-15T02:25:05.602Z,1.50
2019-01-15T02:26:05.969Z,1.50
2019-01-15T02:27:05.875Z,1.50
2019-01-15T02:28:05.150Z,1.50
2019-01-15T02:29:05.766Z,1.50
2019-01-15T02:30:05.363Z,1.50
2019-01-15T02:31:05.677Z,1.50
2019-01-15T02:32:05.865Z,1.50
2019-01-15T02:33:06.105Z,1.50
2019-01-15T02:34:05.467Z,1.50
2019-01-15T02:35:05.474Z,1.50
2019-01-15T02:36:05.628Z,1.50
2019-01-15T02:37:05.130Z,1.50
2019-01-15T02:38:05.235Z,1.50
2019-01-15T02:39:05.955Z,1.56
2019-01-15T02:40:05.247Z,1.56
2019-01-15T02:41:05.366Z,1.56
2019-01-15T02:42:05.919Z,1.56
2019-01-15T02:43:05.223Z,1.56
2019-01-15T02:44:05.217Z,1.56
2019-01-15T02:45:05.442Z,1.56
2019-01-15T02:46:05.458Z,1.56
2019-01-15T02:47:05.123Z,1.56
2019-01-15T02:48:05.626Z,1.56
2019-01-15T02:49:05.122Z,1.56
2019-01-15T02:50:05.244Z,1.56
2019-01-15T02:51:05.305Z,1.56
2019-01-15T02:52:05.646Z,1.56
2019-01-15T02:53:05.708Z,1.56
2019-01-15T02:54:05.798Z,1.56
2019-01-15T02:55:05.130Z,1.62
2019-01-15T02:56:05.156Z,1.56
2019-01-15T02:57:05.217Z,1.56
2019-01-15T02:58:05.606Z,1.56
2019-01-15T02:59:05.929Z,1.56
2019-01-15T03:00:05.277Z,1.56
2019-01-15T03:01:05.554Z,1.56
2019-01-15T03:02:06.026Z,1.56
2019-01-15T03:03:05.138Z,1.56
2019-01-15T03:04:05.224Z,1.56
2019-01-15T03:05:05.207Z,1.56
2019-01-15T03:06:05.866Z,1.62
2019-01-15T03:07:05.565Z,1.56
2019-01-15T03:08:05.616Z,1.62
2019-01-15T03:09:05.474Z,1.56
2019-01-15T03:10:05.412Z,1.56
2019-01-15T03:11:06.037Z,1.62
2019-01-15T03:12:05.072Z,1.62
2019-01-15T03:13:05.544Z,1.62
2019-01-15T03:14:05.890Z,1.62
2019-01-15T03:15:05.857Z,1.62
2019-01-15T03:16:06.115Z,1.62
2019-01-15T03:17:05.139Z,1.62
2019-01-15T03:18:05.374Z,1.62
2019-01-15T03:19:05.619Z,1.62
2019-01-15T03:20:05.714Z,1.62
2019-01-15T03:21:05.052Z,1.62
2019-01-15T03:22:05.147Z,1.62
2019-01-15T03:23:05.787Z,1.62
2019-01-15T03:24:05.959Z,1.62
2019-01-15T03:25:05.954Z,1.62
2019-01-15T03:26:05.241Z,1.62
2019-01-15T03:27:05.311Z,1.69
2019-01-15T03:28:05.405Z,1.69
2019-01-15T03:29:05.318Z,1.69
2019-01-15T03:30:05.870Z,1.69
2019-01-15T03:31:06.077Z,1.69
2019-01-15T03:32:05.135Z,1.69
2019-01-15T03:33:05.806Z,1.69
2019-01-15T03:34:06.145Z,1.69
2019-01-15T03:35:05.360Z,1.69
2019-01-15T03:36:05.836Z,1.69
2019-01-15T03:37:05.119Z,1.69
2019-01-15T03:38:05.304Z,1.69
2019-01-15T03:39:05.206Z,1.69
2019-01-15T03:40:05.395Z,1.62
2019-01-15T03:41:05.871Z,1.69
2019-01-15T03:42:05.945Z,1.69
2019-01-15T03:43:06.017Z,1.69
2019-01-15T03:44:05.619Z,1.69
2019-01-15T03:45:05.277Z,1.69
2019-01-15T03:46:05.793Z,1.69
2019-01-15T03:47:05.845Z,1.69
2019-01-15T03:48:05.937Z,1.69
2019-01-15T03:49:05.151Z,1.69
2019-01-15T03:50:05.480Z,1.62
2019-01-15T03:51:05.561Z,1.69
2019-01-15T03:52:05.809Z,1.69
2019-01-15T03:53:05.767Z,1.69
2019-01-15T03:54:05.391Z,1.62
2019-01-15T03:55:05.051Z,1.69
2019-01-15T03:56:05.948Z,1.62
2019-01-15T03:57:05.927Z,1.62
2019-01-15T03:58:06.120Z,1.69
2019-01-15T03:59:05.045Z,1.69
2019-01-15T04:00:05.131Z,1.62
2019-01-15T04:01:05.436Z,1.62
2019-01-15T04:02:05.151Z,1.62
2019-01-15T04:03:06.190Z,1.62
2019-01-15T04:04:05.496Z,1.69
2019-01-15T04:06:05.174Z,1.62
2019-01-15T04:07:05.218Z,1.69
2019-01-15T04:08:05.154Z,1.62
2019-01-15T04:09:05.674Z,1.62
2019-01-15T04:10:05.946Z,1.62
2019-01-15T04:11:05.651Z,1.62
2019-01-15T04:12:05.968Z,1.69
2019-01-15T04:13:11.140Z,1.69
2019-01-15T04:14:06.044Z,1.62
2019-01-15T04:15:05.072Z,1.62
2019-01-15T04:16:05.326Z,1.62
2019-01-15T04:17:05.992Z,1.62
2019-01-15T04:18:05.038Z,1.62
2019-01-15T04:19:05.461Z,1.62
2019-01-15T04:20:05.564Z,1.62
2019-01-15T04:21:06.086Z,1.62
2019-01-15T04:22:05.160Z,1.62
2019-01-15T04:23:05.121Z,1.62
2019-01-15T04:24:05.279Z,1.62
2019-01-15T04:25:05.583Z,1.62
2019-01-15T04:26:05.954Z,1.62
2019-01-15T04:27:05.230Z,1.62
2019-01-15T04:28:05.474Z,1.62
2019-01-15T04:29:10.361Z,1.62
2019-01-15T04:30:05.883Z,1.56
2019-01-15T04:31:05.846Z,1.62
2019-01-15T04:32:05.306Z,1.56
2019-01-15T04:33:05.392Z,1.56
2019-01-15T04:34:05.580Z,1.62
2019-01-15T04:35:05.625Z,1.62
2019-01-15T04:36:05.543Z,1.56
2019-01-15T04:37:05.850Z,1.56
2019-01-15T04:38:05.890Z,1.56
2019-01-15T04:39:05.891Z,1.56
2019-01-15T04:40:05.119Z,1.56
2019-01-15T04:41:05.437Z,1.56
2019-01-15T04:42:05.770Z,1.56
2019-01-15T04:43:05.948Z,1.62
2019-01-15T04:44:05.087Z,1.56
2019-01-15T04:45:05.138Z,1.56
2019-01-15T04:46:05.219Z,1.56
2019-01-15T04:47:05.721Z,1.62
2019-01-15T04:48:05.954Z,1.62
2019-01-15T04:49:05.399Z,1.56
2019-01-15T04:50:05.538Z,1.56
2019-01-15T04:51:05.772Z,1.56
2019-01-15T04:52:05.760Z,1.62
2019-01-15T04:53:06.017Z,1.56
2019-01-15T04:54:06.130Z,1.56
2019-01-15T04:55:04.992Z,1.56
2019-01-15T04:56:05.393Z,1.56
2019-01-15T04:57:05.397Z,1.56
2019-01-15T04:58:05.544Z,1.56
2019-01-15T04:59:05.233Z,1.56
2019-01-15T05:00:05.227Z,1.56
2019-01-15T05:01:05.437Z,1.56
2019-01-15T05:02:05.041Z,1.56
2019-01-15T05:03:05.389Z,1.56
2019-01-15T05:04:05.630Z,1.56
2019-01-15T05:05:05.041Z,1.56
2019-01-15T05:06:05.132Z,1.56
2019-01-15T05:07:05.366Z,1.56
2019-01-15T05:08:05.637Z,1.56
2019-01-15T05:09:06.033Z,1.56
2019-01-15T05:10:05.144Z,1.56
2019-01-15T05:11:05.708Z,1.56
2019-01-15T05:12:05.603Z,1.56
2019-01-15T05:13:05.828Z,1.56
2019-01-15T05:14:05.245Z,1.56
2019-01-15T05:15:05.225Z,1.56
2019-01-15T05:16:05.390Z,1.56
2019-01-15T05:17:05.465Z,1.56
2019-01-15T05:18:05.728Z,1.62
2019-01-15T05:19:05.792Z,1.56
2019-01-15T05:20:05.805Z,1.56
2019-01-15T05:21:05.786Z,1.56
2019-01-15T05:22:05.779Z,1.56
2019-01-15T05:23:05.920Z,1.56
2019-01-15T05:24:05.237Z,1.56
2019-01-15T05:25:06.086Z,1.56
2019-01-15T05:26:06.106Z,1.62
2019-01-15T05:27:05.205Z,1.62
2019-01-15T05:28:05.876Z,1.56
2019-01-15T05:29:05.869Z,1.56
2019-01-15T05:30:05.305Z,1.56
2019-01-15T05:31:05.626Z,1.62
2019-01-15T05:32:05.710Z,1.62
2019-01-15T05:33:05.228Z,1.62
2019-01-15T05:34:05.609Z,1.62
2019-01-15T05:35:05.941Z,1.56
2019-01-15T05:36:06.034Z,1.56
2019-01-15T05:37:05.072Z,1.56
2019-01-15T05:38:05.208Z,1.56
2019-01-15T05:39:05.375Z,1.56
2019-01-15T05:40:05.173Z,1.56
2019-01-15T05:41:05.176Z,1.56
2019-01-15T05:42:05.449Z,1.56
2019-01-15T05:43:05.876Z,1.56
2019-01-15T05:44:05.908Z,1.56
2019-01-15T05:45:05.926Z,1.56
2019-01-15T05:46:05.076Z,1.56
2019-01-15T05:47:05.715Z,1.56
2019-01-15T05:48:05.885Z,1.56
2019-01-15T05:49:05.952Z,1.56
2019-01-15T05:50:05.078Z,1.56
2019-01-15T05:51:05.626Z,1.56
2019-01-15T05:52:05.715Z,1.56
2019-01-15T05:53:05.132Z,1.56
2019-01-15T05:54:05.396Z,1.56
2019-01-15T05:55:05.872Z,1.56
2019-01-15T05:56:05.068Z,1.56
2019-01-15T05:57:05.717Z,1.56
2019-01-15T05:58:05.961Z,1.56
2019-01-15T05:59:06.091Z,1.56
2019-01-15T06:00:05.650Z,1.56
2019-01-15T06:01:05.530Z,1.56
2019-01-15T06:02:05.627Z,1.56
2019-01-15T06:03:06.066Z,1.56
2019-01-15T06:04:05.398Z,1.56
2019-01-15T06:05:05.142Z,1.56
2019-01-15T06:06:05.232Z,1.56
2019-01-15T06:07:05.454Z,1.56
2019-01-15T06:08:05.553Z,1.56
2019-01-15T06:09:05.627Z,1.56
2019-01-15T06:10:05.750Z,1.56
2019-01-15T06:11:05.608Z,1.56
2019-01-15T06:12:05.690Z,1.56
2019-01-15T06:13:05.939Z,1.56
2019-01-15T06:14:05.873Z,1.56
2019-01-15T06:15:06.018Z,1.56
2019-01-15T06:16:06.132Z,1.56
2019-01-15T06:17:05.999Z,1.56
2019-01-15T06:18:05.251Z,1.56
2019-01-15T06:19:05.223Z,1.56
2019-01-15T06:20:05.518Z,1.56
2019-01-15T06:21:05.768Z,1.56
2019-01-15T06:22:05.396Z,1.56
2019-01-15T06:23:05.450Z,1.56
2019-01-15T06:24:05.957Z,1.50
2019-01-15T06:25:06.030Z,1.50
2019-01-15T06:26:05.322Z,1.50
2019-01-15T06:27:05.372Z,1.50
2019-01-15T06:28:05.465Z,1.50
2019-01-15T06:29:06.092Z,1.50
2019-01-15T06:30:05.436Z,1.50
2019-01-15T06:31:05.711Z,1.50
2019-01-15T06:32:05.129Z,1.50
2019-01-15T06:33:05.381Z,1.50
2019-01-15T06:34:05.773Z,1.50
2019-01-15T06:35:05.963Z,1.50
2019-01-15T06:36:05.206Z,1.50
2019-01-15T06:37:05.360Z,1.50
2019-01-15T06:38:05.417Z,1.50
2019-01-15T06:39:05.371Z,1.50
2019-01-15T06:40:06.052Z,1.50
2019-01-15T06:41:05.124Z,1.50
2019-01-15T06:42:05.562Z,1.50
2019-01-15T06:43:05.606Z,1.50
2019-01-15T06:44:05.881Z,1.50
2019-01-15T06:45:05.781Z,1.50
2019-01-15T06:46:05.219Z,1.50
2019-01-15T06:47:05.159Z,1.50
2019-01-15T06:48:05.214Z,1.50
2019-01-15T06:49:05.966Z,1.50
2019-01-15T06:50:06.034Z,1.50
2019-01-15T06:51:05.162Z,1.50
2019-01-15T06:52:05.618Z,1.50
2019-01-15T06:53:10.618Z,1.56
2019-01-15T06:54:05.851Z,1.50
2019-01-15T06:55:05.872Z,1.50
2019-01-15T06:56:05.466Z,1.56
2019-01-15T06:57:05.525Z,1.50
2019-01-15T06:58:05.715Z,1.50
2019-01-15T06:59:05.932Z,1.50
2019-01-15T07:00:05.226Z,1.50
2019-01-15T07:01:05.606Z,1.50
2019-01-15T07:02:05.686Z,1.50
2019-01-15T07:03:05.959Z,1.50
2019-01-15T07:04:05.976Z,1.50
2019-01-15T07:05:05.967Z,1.50
2019-01-15T07:06:05.154Z,1.50
2019-01-15T07:07:05.884Z,1.50
2019-01-15T07:08:05.950Z,1.50
2019-01-15T07:09:06.023Z,1.50
2019-01-15T07:10:05.918Z,1.50
2019-01-15T07:11:05.217Z,1.50
2019-01-15T07:12:05.314Z,1.50
2019-01-15T07:13:05.227Z,1.50
2019-01-15T07:14:05.387Z,1.50
2019-01-15T07:15:05.450Z,1.50
2019-01-15T07:16:05.740Z,1.50
2019-01-15T07:17:05.784Z,1.50
2019-01-15T07:18:05.774Z,1.50
2019-01-15T07:19:06.001Z,1.56
2019-01-15T07:20:05.075Z,1.56
2019-01-15T07:21:05.831Z,1.56
2019-01-15T07:22:05.966Z,1.56
2019-01-15T07:23:05.871Z,1.56
2019-01-15T07:24:06.013Z,1.56
2019-01-15T07:25:05.165Z,1.50
2019-01-15T07:26:05.399Z,1.50
2019-01-15T07:27:05.289Z,1.50
2019-01-15T07:28:05.374Z,1.50
2019-01-15T07:29:05.638Z,1.56
2019-01-15T07:30:05.050Z,1.56
2019-01-15T07:31:05.235Z,1.56
2019-01-15T07:32:05.619Z,1.56
2019-01-15T07:33:05.859Z,1.56
2019-01-15T07:34:06.029Z,1.56
2019-01-15T07:35:05.702Z,1.56
2019-01-15T07:36:05.791Z,1.56
2019-01-15T07:37:05.141Z,1.56
2019-01-15T07:38:05.242Z,1.56
2019-01-15T07:39:05.290Z,1.56
2019-01-15T07:40:05.396Z,1.56
2019-01-15T07:41:05.447Z,1.56
2019-01-15T07:42:05.792Z,1.56
2019-01-15T07:43:05.953Z,1.56
2019-01-15T07:44:05.935Z,1.62
2019-01-15T07:45:05.197Z,1.62
2019-01-15T07:46:05.629Z,1.56
2019-01-15T07:47:05.239Z,1.56
2019-01-15T07:48:05.593Z,1.56
2019-01-15T07:49:05.792Z,1.56
2019-01-15T07:50:05.709Z,1.62
2019-01-15T07:51:05.868Z,1.62
2019-01-15T07:52:06.776Z,1.62
2019-01-15T07:53:06.033Z,1.62
2019-01-15T07:54:05.222Z,1.69
2019-01-15T07:55:06.938Z,1.69
2019-01-15T07:56:05.231Z,1.69
2019-01-15T07:57:05.788Z,1.69
2019-01-15T07:58:05.959Z,1.69
2019-01-15T07:59:05.871Z,1.69
2019-01-15T08:00:05.036Z,1.69
2019-01-15T08:01:05.235Z,1.69
2019-01-15T08:02:05.688Z,1.69
2019-01-15T08:03:05.773Z,1.69
2019-01-15T08:04:05.213Z,1.69
2019-01-15T08:05:05.535Z,1.69
2019-01-15T08:06:05.465Z,1.75
2019-01-15T08:07:05.611Z,1.75
2019-01-15T08:08:05.795Z,1.75
2019-01-15T08:09:04.995Z,1.75
2019-01-15T08:10:05.128Z,1.81
2019-01-15T08:11:05.567Z,1.81
2019-01-15T08:12:05.523Z,1.81
2019-01-15T08:13:06.030Z,1.81
2019-01-15T08:14:11.812Z,1.81
2019-01-15T08:15:05.712Z,1.88
2019-01-15T08:16:05.965Z,1.88
2019-01-15T08:17:05.933Z,1.88
2019-01-15T08:18:06.197Z,1.88
2019-01-15T08:19:05.037Z,1.88
2019-01-15T08:20:05.326Z,1.88
2019-01-15T08:21:05.307Z,1.88
2019-01-15T08:22:05.312Z,1.94
2019-01-15T08:23:05.373Z,1.94
2019-01-15T08:24:05.593Z,1.94
2019-01-15T08:25:05.615Z,2.00
2019-01-15T08:26:05.629Z,2.00
2019-01-15T08:27:05.519Z,2.00
2019-01-15T08:28:05.558Z,2.00
2019-01-15T08:29:05.059Z,2.00
2019-01-15T08:30:05.466Z,2.00
2019-01-15T08:31:05.606Z,2.06
2019-01-15T08:32:05.725Z,2.06
2019-01-15T08:33:05.300Z,2.06
2019-01-15T08:34:05.559Z,2.06
2019-01-15T08:35:05.610Z,2.06
2019-01-15T08:36:05.569Z,2.12
2019-01-15T08:37:05.622Z,2.12
2019-01-15T08:38:05.690Z,2.19
2019-01-15T08:39:05.850Z,2.19
2019-01-15T08:40:06.021Z,2.19
2019-01-15T08:41:05.139Z,2.19
2019-01-15T08:42:05.627Z,2.19
2019-01-15T08:43:05.140Z,2.25
2019-01-15T08:44:05.245Z,2.25
2019-01-15T08:45:05.932Z,2.25
2019-01-15T08:46:05.386Z,2.25
2019-01-15T08:47:05.922Z,2.25
2019-01-15T08:48:05.484Z,2.25
2019-01-15T08:49:05.600Z,2.31
2019-01-15T08:50:05.929Z,2.31
2019-01-15T08:51:05.147Z,2.31
2019-01-15T08:52:05.155Z,2.31
2019-01-15T08:53:05.677Z,2.38
2019-01-15T08:54:05.734Z,2.38
2019-01-15T08:55:05.876Z,2.38
2019-01-15T08:56:05.221Z,2.38
2019-01-15T08:57:05.687Z,2.38
2019-01-15T08:58:05.147Z,2.38
2019-01-15T08:59:05.455Z,2.44
2019-01-15T09:00:05.558Z,2.44
2019-01-15T09:01:05.850Z,2.50
2019-01-15T09:02:06.048Z,2.50
2019-01-15T09:03:05.942Z,2.50
2019-01-15T09:04:05.182Z,2.50
2019-01-15T09:05:05.369Z,2.56
2019-01-15T09:06:05.696Z,2.56
2019-01-15T09:07:05.756Z,2.62
2019-01-15T09:08:05.791Z,2.62
2019-01-15T09:09:06.007Z,2.62
2019-01-15T09:10:05.634Z,2.69
2019-01-15T09:11:05.708Z,2.69
2019-01-15T09:12:05.945Z,2.69
2019-01-15T09:13:05.295Z,2.69
2019-01-15T09:14:05.423Z,2.69
2019-01-15T09:15:05.450Z,2.75
2019-01-15T09:16:05.843Z,2.75
2019-01-15T09:17:10.898Z,2.75
2019-01-15T09:18:05.532Z,2.75
2019-01-15T09:19:05.772Z,2.81
2019-01-15T09:20:05.300Z,2.81
2019-01-15T09:21:05.548Z,2.88
2019-01-15T09:22:05.873Z,2.81
2019-01-15T09:23:05.371Z,2.81
2019-01-15T09:24:05.474Z,2.88
2019-01-15T09:25:05.453Z,2.88
2019-01-15T09:26:05.833Z,2.88
2019-01-15T09:27:05.443Z,2.88
2019-01-15T09:28:05.471Z,2.94
2019-01-15T09:29:05.073Z,2.94
2019-01-15T09:30:05.884Z,2.94
2019-01-15T09:31:05.840Z,2.94
2019-01-15T09:32:05.963Z,2.94
2019-01-15T09:33:05.928Z,2.94
2019-01-15T09:34:05.173Z,3.00
2019-01-15T09:35:05.283Z,3.00
2019-01-15T09:36:05.710Z,3.00
2019-01-15T09:37:06.028Z,3.00
2019-01-15T09:38:05.311Z,3.06
2019-01-15T09:39:05.675Z,3.06
2019-01-15T09:40:05.386Z,3.06
2019-01-15T09:41:05.853Z,3.06
2019-01-15T09:42:05.919Z,3.06
2019-01-15T09:43:05.373Z,3.06
2019-01-15T09:44:05.484Z,3.12
2019-01-15T09:45:05.472Z,3.12
2019-01-15T09:46:05.711Z,3.12
2019-01-15T09:47:05.149Z,3.12
2019-01-15T09:48:05.226Z,3.12
2019-01-15T09:49:05.600Z,3.19
2019-01-15T09:50:05.665Z,3.19
2019-01-15T09:51:05.964Z,3.19
2019-01-15T09:53:05.942Z,3.19
2019-01-15T09:54:05.947Z,3.19
2019-01-15T09:55:05.629Z,3.25
2019-01-15T09:56:05.887Z,3.25
2019-01-15T09:57:05.862Z,3.25
2019-01-15T09:58:05.955Z,3.25
2019-01-15T09:59:05.744Z,3.25
2019-01-15T10:00:05.806Z,3.31
2019-01-15T10:01:05.911Z,3.31
2019-01-15T10:02:05.307Z,3.31
2019-01-15T10:03:05.300Z,3.31
2019-01-15T10:04:05.706Z,3.31
2019-01-15T10:05:05.925Z,3.31
2019-01-15T10:06:05.869Z,3.38
2019-01-15T10:07:05.875Z,3.38
2019-01-15T10:08:06.032Z,3.38
2019-01-15T10:09:06.042Z,3.38
2019-01-15T10:10:05.233Z,3.44
2019-01-15T10:11:05.286Z,3.44
2019-01-15T10:12:05.408Z,3.44
2019-01-15T10:13:05.265Z,3.44
2019-01-15T10:14:05.316Z,3.44
2019-01-15T10:15:05.365Z,3.44
2019-01-15T10:16:05.323Z,3.44
2019-01-15T10:17:05.927Z,3.50
2019-01-15T10:18:05.885Z,3.44
2019-01-15T10:19:05.922Z,3.44
2019-01-15T10:20:05.958Z,3.44
2019-01-15T10:21:05.427Z,3.44
2019-01-15T10:22:05.129Z,3.44
2019-01-15T10:23:05.426Z,3.44
2019-01-15T10:24:05.069Z,3.44
2019-01-15T10:25:05.515Z,3.44
2019-01-15T10:26:05.151Z,3.44
2019-01-15T10:27:05.193Z,3.44
2019-01-15T10:28:05.227Z,3.44
2019-01-15T10:29:05.276Z,3.44
2019-01-15T10:30:05.739Z,3.44
2019-01-15T10:31:05.024Z,3.44
2019-01-15T10:32:05.166Z,3.50
2019-01-15T10:33:05.186Z,3.50
2019-01-15T10:34:05.720Z,3.50
2019-01-15T10:35:05.756Z,3.44
2019-01-15T10:36:05.706Z,3.50
2019-01-15T10:37:05.663Z,3.50
2019-01-15T10:38:05.309Z,3.50
2019-01-15T10:39:05.266Z,3.50
2019-01-15T10:40:05.384Z,3.50
2019-01-15T10:41:06.072Z,3.50
2019-01-15T10:42:05.568Z,3.50
2019-01-15T10:43:05.333Z,3.50
2019-01-15T10:44:05.465Z,3.56
2019-01-15T10:45:05.123Z,3.56
2019-01-15T10:46:05.238Z,3.56
2019-01-15T10:47:05.104Z,3.56
2019-01-15T10:48:05.627Z,3.56
2019-01-15T10:49:05.983Z,3.56
2019-01-15T10:50:06.037Z,3.56
2019-01-15T10:51:05.502Z,3.56
2019-01-15T10:52:05.164Z,3.56
2019-01-15T10:53:05.104Z,3.56
2019-01-15T10:54:05.635Z,3.62
2019-01-15T10:55:05.672Z,3.62
2019-01-15T10:56:05.870Z,3.62
2019-01-15T10:57:05.593Z,3.62
2019-01-15T10:58:05.799Z,3.62
2019-01-15T10:59:05.746Z,3.62
2019-01-15T11:00:05.875Z,3.69
2019-01-15T11:01:05.949Z,3.69
2019-01-15T11:02:05.105Z,3.69
2019-01-15T11:03:05.385Z,3.69
2019-01-15T11:04:05.637Z,3.69
2019-01-15T11:05:05.978Z,3.69
2019-01-15T11:06:06.049Z,3.69
2019-01-15T11:07:05.498Z,3.75
2019-01-15T11:08:05.951Z,3.75
2019-01-15T11:09:05.835Z,3.75
2019-01-15T11:10:05.956Z,3.75
2019-01-15T11:11:05.819Z,3.75
2019-01-15T11:12:05.390Z,3.81
2019-01-15T11:13:05.515Z,3.81
2019-01-15T11:14:05.505Z,3.81
2019-01-15T11:15:05.752Z,3.81
2019-01-15T11:16:05.631Z,3.88
2019-01-15T11:17:05.350Z,3.88
2019-01-15T11:18:05.433Z,3.88
2019-01-15T11:19:05.420Z,3.94
2019-01-15T11:20:06.036Z,3.94
2019-01-15T11:21:05.498Z,3.94
2019-01-15T11:22:05.579Z,3.94
2019-01-15T11:23:05.914Z,3.88
2019-01-15T11:24:05.968Z,3.94
2019-01-15T11:25:05.440Z,3.94
2019-01-15T11:26:05.472Z,3.94
2019-01-15T11:27:05.952Z,3.94
2019-01-15T11:28:05.074Z,3.94
2019-01-15T11:29:05.143Z,3.94
2019-01-15T11:30:05.235Z,3.94
2019-01-15T11:31:05.864Z,3.94
2019-01-15T11:32:05.236Z,3.94
2019-01-15T11:33:05.279Z,3.94
2019-01-15T11:34:05.339Z,3.94
2019-01-15T11:35:05.433Z,4.00
2019-01-15T11:36:05.406Z,3.94
2019-01-15T11:37:05.424Z,4.00
2019-01-15T11:38:05.303Z,4.00
2019-01-15T11:39:05.341Z,4.00
2019-01-15T11:40:05.391Z,4.00
2019-01-15T11:41:05.826Z,4.00
2019-01-15T11:42:05.870Z,4.00
2019-01-15T11:43:05.588Z,4.00
2019-01-15T11:44:05.946Z,4.06
2019-01-15T11:45:05.349Z,4.06
2019-01-15T11:46:05.439Z,4.06
2019-01-15T11:47:05.666Z,4.06
2019-01-15T11:48:05.158Z,4.06
2019-01-15T11:49:05.195Z,4.06
2019-01-15T11:50:06.581Z,4.12
2019-01-15T11:51:05.748Z,4.12
2019-01-15T11:52:05.237Z,4.12
2019-01-15T11:53:05.590Z,4.12
2019-01-15T11:54:05.713Z,4.12
2019-01-15T11:55:05.278Z,4.12
2019-01-15T11:56:05.391Z,4.12
2019-01-15T11:57:05.949Z,4.19
2019-01-15T11:58:06.226Z,4.19
2019-01-15T11:59:05.535Z,4.19
2019-01-15T12:00:05.639Z,4.19
2019-01-15T12:01:05.712Z,4.19
2019-01-15T12:02:05.954Z,4.12
2019-01-15T12:03:05.292Z,4.19
2019-01-15T12:04:05.847Z,4.19
2019-01-15T12:05:06.026Z,4.19
2019-01-15T12:06:05.474Z,4.19
2019-01-15T12:07:05.639Z,4.19
2019-01-15T12:08:05.290Z,4.19
2019-01-15T12:09:05.642Z,4.19
2019-01-15T12:10:05.702Z,4.19
2019-01-15T12:11:05.792Z,4.19
2019-01-15T12:12:05.454Z,4.19
2019-01-15T12:13:05.714Z,4.25
2019-01-15T12:14:05.777Z,4.25
2019-01-15T12:15:10.718Z,4.25
2019-01-15T12:16:05.553Z,4.25
2019-01-15T12:17:05.803Z,4.25
2019-01-15T12:18:05.284Z,4.25
2019-01-15T12:19:06.454Z,4.25
2019-01-15T12:20:05.722Z,4.19
2019-01-15T12:21:05.949Z,4.19
2019-01-15T12:22:05.437Z,4.19
2019-01-15T12:23:05.737Z,4.19
2019-01-15T12:24:05.610Z,4.19
2019-01-15T12:25:05.779Z,4.19
2019-01-15T12:26:05.106Z,4.19
2019-01-15T12:27:05.395Z,4.19
2019-01-15T12:28:05.766Z,4.19
2019-01-15T12:29:05.402Z,4.19
2019-01-15T12:30:05.716Z,4.19
2019-01-15T12:31:06.165Z,4.19
2019-01-15T12:32:05.954Z,4.19
2019-01-15T12:33:05.226Z,4.19
2019-01-15T12:34:05.530Z,4.25
2019-01-15T12:35:05.630Z,4.25
2019-01-15T12:36:05.200Z,4.25
2019-01-15T12:37:05.721Z,4.25
2019-01-15T12:38:05.775Z,4.25
2019-01-15T12:39:05.803Z,4.25
2019-01-15T12:40:05.885Z,4.25
2019-01-15T12:41:06.020Z,4.25
2019-01-15T12:42:05.372Z,4.25
2019-01-15T12:43:05.318Z,4.25
2019-01-15T12:44:05.766Z,4.25
2019-01-15T12:45:05.880Z,4.25
2019-01-15T12:46:05.947Z,4.25
2019-01-15T12:47:06.125Z,4.25
2019-01-15T12:48:05.124Z,4.25
2019-01-15T12:49:05.621Z,4.25
2019-01-15T12:50:05.924Z,4.25
2019-01-15T12:51:05.160Z,4.25
2019-01-15T12:52:05.528Z,4.25
2019-01-15T12:53:05.621Z,4.25
2019-01-15T12:54:05.794Z,4.25
2019-01-15T12:55:05.781Z,4.25
2019-01-15T12:56:05.351Z,4.25
2019-01-15T12:57:05.784Z,4.25
2019-01-15T12:58:05.784Z,4.25
2019-01-15T12:59:05.947Z,4.25
2019-01-15T13:00:05.926Z,4.25
2019-01-15T13:01:05.385Z,4.25
2019-01-15T13:02:05.857Z,4.25
2019-01-15T13:03:05.394Z,4.19
2019-01-15T13:04:05.851Z,4.25
2019-01-15T13:05:05.943Z,4.25
2019-01-15T13:06:05.065Z,4.25
2019-01-15T13:07:05.292Z,4.25
2019-01-15T13:08:05.399Z,4.25
2019-01-15T13:09:05.650Z,4.25
2019-01-15T13:10:05.611Z,4.25
2019-01-15T13:11:05.061Z,4.25
2019-01-15T13:12:05.376Z,4.25
2019-01-15T13:13:05.566Z,4.25
2019-01-15T13:14:05.519Z,4.25
2019-01-15T13:15:05.129Z,4.25
2019-01-15T13:16:05.376Z,4.25
2019-01-15T13:17:05.395Z,4.25
2019-01-15T13:18:05.534Z,4.25
2019-01-15T13:19:06.035Z,4.31
2019-01-15T13:20:05.040Z,4.31